createdAt,value
2023-05-18T00:00:16.249Z,99.99
2023-05-18T00:01:16.141Z,99.99
2023-05-18T00:02:16.290Z,99.99
2023-05-18T00:03:16.180Z,99.99
2023-05-18T00:04:16.152Z,99.99
2023-05-18T00:05:16.120Z,99.99
2023-05-18T00:06:16.063Z,99.99
2023-05-18T00:07:16.069Z,99.99
2023-05-18T00:08:16.058Z,99.99
2023-05-18T00:09:16.028Z,99.99
2023-05-18T00:10:16.098Z,99.99
2023-05-18T00:11:16.000Z,99.99
2023-05-18T00:12:15.986Z,99.99
2023-05-18T00:13:16.024Z,99.99
2023-05-18T00:14:15.969Z,99.99
2023-05-18T00:15:15.932Z,99.99
2023-05-18T00:16:16.167Z,99.99
2023-05-18T00:17:15.912Z,99.99
2023-05-18T00:18:15.927Z,99.99
2023-05-18T00:19:15.934Z,99.99
2023-05-18T00:20:15.921Z,99.99
2023-05-18T00:21:15.870Z,99.99
2023-05-18T00:22:15.855Z,99.99
2023-05-18T00:23:15.851Z,99.99
2023-05-18T00:24:15.810Z,99.99
2023-05-18T00:25:15.816Z,99.99
2023-05-18T00:26:15.798Z,99.99
2023-05-18T00:27:15.829Z,99.99
2023-05-18T00:28:15.760Z,99.99
2023-05-18T00:29:15.781Z,99.99
2023-05-18T00:30:15.742Z,99.99
2023-05-18T00:31:15.765Z,99.99
2023-05-18T00:32:15.736Z,99.99
2023-05-18T00:33:15.693Z,99.99
2023-05-18T00:34:15.697Z,99.99
2023-05-18T00:35:15.673Z,99.99
2023-05-18T00:36:15.690Z,99.99
2023-05-18T00:37:15.705Z,99.99
2023-05-18T00:38:15.695Z,99.99
2023-05-18T00:39:15.616Z,99.99
2023-05-18T00:40:15.609Z,99.99
2023-05-18T00:41:15.622Z,99.99
2023-05-18T00:42:15.600Z,99.99
2023-05-18T00:43:15.580Z,99.99
2023-05-18T00:44:15.573Z,99.99
2023-05-18T00:45:15.545Z,99.99
2023-05-18T00:46:15.579Z,99.99
2023-05-18T00:47:15.532Z,99.99
2023-05-18T00:48:15.561Z,99.99
2023-05-18T00:49:15.509Z,99.99
2023-05-18T00:50:15.477Z,99.99
2023-05-18T00:51:15.513Z,99.99
2023-05-18T00:52:15.435Z,99.99
2023-05-18T00:53:15.458Z,99.99
2023-05-18T00:54:15.446Z,99.99
2023-05-18T00:55:15.447Z,99.99
2023-05-18T00:56:15.399Z,99.99
2023-05-18T00:57:15.396Z,99.99
2023-05-18T00:58:15.360Z,99.99
2023-05-18T00:59:15.367Z,99.99
2023-05-18T01:00:15.377Z,99.99
2023-05-18T01:01:15.344Z,99.99
2023-05-18T01:02:15.336Z,99.99
2023-05-18T01:03:15.403Z,99.99
2023-05-18T01:04:15.275Z,99.99
2023-05-18T01:05:15.304Z,99.99
2023-05-18T01:06:15.246Z,99.99
2023-05-18T01:07:15.252Z,99.99
2023-05-18T01:08:15.239Z,99.99
2023-05-18T01:09:15.228Z,99.99
2023-05-18T01:10:15.241Z,99.99
2023-05-18T01:11:15.252Z,99.99
2023-05-18T01:12:15.203Z,99.99
2023-05-18T01:13:15.183Z,99.99
2023-05-18T01:14:15.174Z,99.99
2023-05-18T01:15:15.146Z,99.99
2023-05-18T01:16:15.110Z,99.99
2023-05-18T01:17:15.148Z,99.99
2023-05-18T01:18:15.158Z,99.99
2023-05-18T01:19:15.222Z,99.99
2023-05-18T01:20:15.066Z,99.99
2023-05-18T01:21:15.057Z,99.99
2023-05-18T01:22:15.040Z,99.99
2023-05-18T01:23:15.055Z,99.99
2023-05-18T01:24:15.016Z,99.99
2023-05-18T01:25:15.000Z,99.99
2023-05-18T01:26:15.008Z,99.99
2023-05-18T01:27:14.994Z,99.99
2023-05-18T01:28:14.961Z,99.99
2023-05-18T01:29:14.947Z,99.99
2023-05-18T01:30:14.935Z,99.99
2023-05-18T01:31:14.982Z,99.99
2023-05-18T01:32:14.931Z,99.99
2023-05-18T01:33:14.931Z,99.99
2023-05-18T01:34:14.914Z,99.99
2023-05-18T01:35:14.877Z,99.99
2023-05-18T01:36:14.848Z,99.99
2023-05-18T01:37:14.878Z,99.99
2023-05-18T01:38:14.824Z,99.99
2023-05-18T01:39:14.815Z,99.99
2023-05-18T01:40:14.796Z,99.99
2023-05-18T01:41:14.800Z,99.99
2023-05-18T01:42:14.808Z,99.99
2023-05-18T01:43:14.775Z,99.99
2023-05-18T01:44:14.741Z,99.99
2023-05-18T01:45:14.736Z,99.99
2023-05-18T01:46:14.765Z,99.99
2023-05-18T01:47:14.736Z,99.99
2023-05-18T01:48:14.693Z,99.99
2023-05-18T01:49:14.721Z,99.99
2023-05-18T01:50:14.649Z,99.99
2023-05-18T01:51:14.709Z,99.99
2023-05-18T01:52:14.641Z,99.99
2023-05-18T01:53:14.631Z,99.99
2023-05-18T01:54:14.643Z,99.99
2023-05-18T01:55:14.601Z,99.99
2023-05-18T01:56:14.599Z,99.99
2023-05-18T01:57:14.592Z,99.99
2023-05-18T01:58:14.550Z,99.99
2023-05-18T01:59:14.546Z,99.99
2023-05-18T02:00:14.551Z,99.99
2023-05-18T02:01:14.568Z,99.99
2023-05-18T02:02:14.564Z,99.99
2023-05-18T02:03:14.586Z,99.99
2023-05-18T02:04:14.584Z,99.99
2023-05-18T02:05:14.521Z,99.99
2023-05-18T02:06:14.440Z,99.99
2023-05-18T02:07:14.442Z,99.99
2023-05-18T02:08:14.415Z,99.99
2023-05-18T02:09:14.434Z,99.99
2023-05-18T02:10:14.449Z,99.74
2023-05-18T02:11:14.377Z,99.54
2023-05-18T02:12:14.370Z,99.33
2023-05-18T02:13:14.348Z,99.02
2023-05-18T02:14:14.382Z,98.50
2023-05-18T02:15:14.346Z,98.41
2023-05-18T02:16:14.352Z,98.41
2023-05-18T02:17:14.293Z,98.41
2023-05-18T02:18:14.309Z,97.89
2023-05-18T02:19:14.358Z,97.78
2023-05-18T02:20:14.265Z,97.89
2023-05-18T02:21:14.255Z,98.10
2023-05-18T02:22:14.227Z,98.20
2023-05-18T02:23:14.214Z,98.50
2023-05-18T02:24:14.270Z,98.20
2023-05-18T02:25:14.190Z,98.41
2023-05-18T02:26:14.188Z,98.30
2023-05-18T02:27:14.167Z,97.89
2023-05-18T02:28:14.168Z,97.58
2023-05-18T02:29:14.127Z,97.78
2023-05-18T02:30:15.981Z,97.73
2023-05-18T02:31:14.118Z,97.83
2023-05-18T02:32:14.252Z,97.63
2023-05-18T02:33:14.183Z,97.63
2023-05-18T02:34:14.079Z,97.52
2023-05-18T02:35:14.057Z,97.11
2023-05-18T02:36:14.043Z,97.01
2023-05-18T02:37:14.051Z,97.11
2023-05-18T02:38:14.019Z,97.21
2023-05-18T02:39:14.013Z,97.11
2023-05-18T02:40:13.978Z,97.21
2023-05-18T02:41:13.988Z,97.01
2023-05-18T02:42:13.967Z,96.59
2023-05-18T02:43:13.943Z,96.80
2023-05-18T02:44:13.925Z,96.59
2023-05-18T02:45:13.910Z,96.33
2023-05-18T02:46:13.925Z,95.81
2023-05-18T02:47:13.923Z,95.61
2023-05-18T02:48:13.880Z,95.09
2023-05-18T02:49:13.860Z,94.89
2023-05-18T02:50:13.861Z,94.89
2023-05-18T02:51:13.895Z,94.78
2023-05-18T02:52:13.846Z,94.47
2023-05-18T02:53:13.817Z,94.47
2023-05-18T02:54:13.806Z,94.57
2023-05-18T02:55:13.852Z,94.27
2023-05-18T02:56:13.795Z,94.17
2023-05-18T02:57:13.755Z,94.17
2023-05-18T02:58:13.742Z,94.06
2023-05-18T02:59:13.730Z,94.68
2023-05-18T03:00:13.718Z,94.47
2023-05-18T03:01:13.765Z,94.37
2023-05-18T03:02:13.717Z,94.57
2023-05-18T03:03:13.819Z,94.47
2023-05-18T03:04:13.667Z,94.06
2023-05-18T03:05:13.670Z,94.17
2023-05-18T03:06:13.659Z,94.47
2023-05-18T03:07:13.646Z,94.37
2023-05-18T03:08:13.597Z,94.17
2023-05-18T03:09:13.599Z,94.17
2023-05-18T03:10:13.610Z,93.85
2023-05-18T03:11:14.682Z,94.06
2023-05-18T03:12:13.549Z,94.06
2023-05-18T03:13:13.551Z,94.17
2023-05-18T03:14:13.535Z,94.27
2023-05-18T03:15:13.541Z,94.27
2023-05-18T03:16:13.577Z,93.96
2023-05-18T03:17:13.513Z,93.85
2023-05-18T03:18:13.469Z,93.65
2023-05-18T03:19:13.557Z,93.13
2023-05-18T03:20:13.459Z,92.93
2023-05-18T03:21:13.447Z,93.03
2023-05-18T03:22:13.416Z,92.72
2023-05-18T03:23:13.418Z,92.93
2023-05-18T03:24:13.457Z,92.93
2023-05-18T03:25:13.386Z,92.82
2023-05-18T03:26:13.394Z,92.72
2023-05-18T03:27:13.385Z,92.41
2023-05-18T03:28:13.347Z,92.41
2023-05-18T03:29:13.416Z,92.41
2023-05-18T03:30:13.362Z,92.25
2023-05-18T03:31:13.365Z,91.83
2023-05-18T03:32:13.336Z,91.42
2023-05-18T03:33:13.357Z,91.22
2023-05-18T03:34:13.267Z,91.32
2023-05-18T03:35:13.249Z,90.70
2023-05-18T03:36:13.236Z,90.70
2023-05-18T03:37:13.221Z,90.91
2023-05-18T03:38:13.246Z,90.59
2023-05-18T03:39:13.203Z,90.39
2023-05-18T03:40:13.200Z,90.39
2023-05-18T03:41:13.182Z,90.19
2023-05-18T03:42:13.197Z,89.67
2023-05-18T03:43:13.169Z,89.67
2023-05-18T03:44:13.123Z,89.36
2023-05-18T03:45:13.113Z,89.67
2023-05-18T03:46:13.146Z,89.56
2023-05-18T03:47:13.095Z,89.05
2023-05-18T03:48:13.155Z,89.36
2023-05-18T03:49:13.104Z,89.15
2023-05-18T03:50:13.036Z,88.84
2023-05-18T03:51:13.082Z,88.32
2023-05-18T03:52:13.100Z,88.32
2023-05-18T03:53:13.000Z,88.22
2023-05-18T03:54:12.989Z,88.43
2023-05-18T03:55:12.982Z,88.43
2023-05-18T03:56:12.998Z,88.74
2023-05-18T03:57:13.003Z,88.74
2023-05-18T03:58:12.942Z,89.05
2023-05-18T03:59:12.926Z,88.95
2023-05-18T04:00:12.895Z,88.84
2023-05-18T04:01:12.931Z,88.64
2023-05-18T04:02:12.973Z,88.84
2023-05-18T04:03:12.951Z,89.25
2023-05-18T04:04:12.887Z,89.22
2023-05-18T04:05:12.869Z,89.52
2023-05-18T04:06:12.863Z,89.62
2023-05-18T04:07:14.264Z,89.83
2023-05-18T04:08:12.833Z,89.83
2023-05-18T04:09:12.799Z,90.25
2023-05-18T04:10:12.811Z,90.25
2023-05-18T04:11:12.815Z,90.66
2023-05-18T04:12:12.763Z,90.97
2023-05-18T04:13:12.727Z,91.17
2023-05-18T04:14:12.716Z,90.97
2023-05-18T04:15:12.718Z,90.76
2023-05-18T04:16:12.774Z,90.86
2023-05-18T04:17:12.689Z,91.48
2023-05-18T04:18:12.904Z,92.06
2023-05-18T04:19:12.699Z,91.85
2023-05-18T04:20:12.696Z,91.44
2023-05-18T04:21:12.678Z,91.64
2023-05-18T04:22:12.620Z,92.16
2023-05-18T04:23:12.611Z,92.57
2023-05-18T04:24:12.606Z,92.88
2023-05-18T04:25:12.620Z,92.99
2023-05-18T04:26:12.595Z,93.50
2023-05-18T04:27:12.557Z,93.87
2023-05-18T04:28:12.525Z,94.08
2023-05-18T04:29:12.526Z,94.38
2023-05-18T04:30:12.521Z,94.90
2023-05-18T04:31:12.502Z,95.21
2023-05-18T04:32:12.524Z,95.10
2023-05-18T04:33:12.505Z,95.73
2023-05-18T04:34:12.508Z,95.93
2023-05-18T04:35:12.467Z,95.99
2023-05-18T04:36:12.419Z,96.41
2023-05-18T04:37:12.416Z,96.09
2023-05-18T04:38:12.423Z,96.20
2023-05-18T04:39:12.401Z,96.92
2023-05-18T04:40:12.371Z,97.23
2023-05-18T04:41:12.355Z,97.13
2023-05-18T04:42:12.342Z,97.64
2023-05-18T04:43:12.351Z,97.85
2023-05-18T04:44:12.350Z,97.64
2023-05-18T04:45:12.331Z,97.74
2023-05-18T04:46:12.386Z,97.85
2023-05-18T04:47:12.279Z,98.05
2023-05-18T04:48:12.362Z,98.77
2023-05-18T04:49:12.280Z,98.46
2023-05-18T04:50:12.226Z,98.46
2023-05-18T04:51:12.237Z,99.08
2023-05-18T04:52:12.211Z,98.88
2023-05-18T04:53:12.236Z,99.24
2023-05-18T04:54:12.179Z,99.24
2023-05-18T04:55:12.184Z,99.44
2023-05-18T04:56:12.188Z,98.72
2023-05-18T04:57:12.147Z,98.21
2023-05-18T04:58:12.136Z,98.42
2023-05-18T04:59:12.107Z,98.21
2023-05-18T05:00:12.132Z,99.44
2023-05-18T05:01:12.141Z,99.65
2023-05-18T05:02:12.186Z,99.86
2023-05-18T05:03:12.125Z,99.65
2023-05-18T05:04:12.053Z,99.55
2023-05-18T05:05:12.037Z,99.60
2023-05-18T05:06:12.023Z,99.99
2023-05-18T05:07:12.038Z,99.99
2023-05-18T05:08:12.013Z,99.99
2023-05-18T05:09:11.966Z,99.99
2023-05-18T05:10:11.965Z,99.99
2023-05-18T05:11:12.032Z,99.99
2023-05-18T05:12:11.969Z,99.99
2023-05-18T05:13:11.912Z,99.99
2023-05-18T05:14:11.911Z,99.99
2023-05-18T05:15:11.886Z,99.99
2023-05-18T05:16:12.036Z,99.99
2023-05-18T05:17:11.857Z,99.99
2023-05-18T05:18:11.922Z,99.99
2023-05-18T05:19:11.870Z,99.99
2023-05-18T05:20:11.833Z,99.99
2023-05-18T05:21:11.860Z,99.99
2023-05-18T05:22:11.821Z,99.99
2023-05-18T05:23:11.795Z,99.99
2023-05-18T05:24:11.786Z,99.99
2023-05-18T05:25:11.805Z,99.99
2023-05-18T05:26:11.786Z,99.99
2023-05-18T05:27:11.741Z,99.99
2023-05-18T05:28:11.727Z,99.99
2023-05-18T05:29:11.720Z,99.99
2023-05-18T05:30:11.717Z,99.99
2023-05-18T05:31:11.729Z,99.99
2023-05-18T05:32:11.682Z,99.99
2023-05-18T05:33:11.695Z,99.99
2023-05-18T05:34:11.653Z,99.99
2023-05-18T05:35:11.686Z,99.99
2023-05-18T05:36:11.617Z,99.99
2023-05-18T05:37:11.623Z,99.99
2023-05-18T05:38:11.593Z,99.99
2023-05-18T05:39:11.592Z,99.99
2023-05-18T05:40:11.637Z,99.99
2023-05-18T05:41:11.547Z,99.99
2023-05-18T05:42:11.555Z,99.99
2023-05-18T05:43:11.525Z,99.99
2023-05-18T05:44:11.753Z,99.99
2023-05-18T05:45:11.496Z,99.99
2023-05-18T05:46:11.489Z,99.99
2023-05-18T05:47:11.549Z,99.99
2023-05-18T05:48:13.738Z,99.99
2023-05-18T05:49:11.460Z,99.99
2023-05-18T05:50:11.439Z,99.99
2023-05-18T05:51:11.422Z,99.99
2023-05-18T05:52:11.434Z,99.99
2023-05-18T05:53:11.444Z,99.99
2023-05-18T05:54:11.407Z,99.99
2023-05-18T05:55:11.359Z,99.99
2023-05-18T05:56:11.377Z,99.99
2023-05-18T05:57:11.339Z,99.99
2023-05-18T05:58:11.357Z,99.99
2023-05-18T05:59:11.326Z,99.99
2023-05-18T06:00:11.330Z,99.99
2023-05-18T06:01:11.297Z,99.99
2023-05-18T06:02:11.308Z,99.99
2023-05-18T06:03:11.331Z,99.99
2023-05-18T06:04:11.258Z,99.99
2023-05-18T06:05:11.232Z,99.99
2023-05-18T06:06:11.236Z,99.99
2023-05-18T06:07:11.229Z,99.99
2023-05-18T06:08:11.207Z,99.99
2023-05-18T06:09:11.171Z,99.99
2023-05-18T06:10:11.177Z,99.99
2023-05-18T06:11:11.595Z,99.99
2023-05-18T06:12:11.178Z,99.99
2023-05-18T06:13:11.132Z,99.99
2023-05-18T06:14:11.109Z,99.99
2023-05-18T06:15:11.101Z,99.99
2023-05-18T06:16:11.160Z,99.99
2023-05-18T06:17:11.113Z,99.99
2023-05-18T06:18:13.397Z,99.99
2023-05-18T06:19:11.067Z,99.99
2023-05-18T06:20:11.026Z,99.90
2023-05-18T06:21:11.058Z,99.99
2023-05-18T06:22:11.020Z,99.08
2023-05-18T06:23:10.990Z,98.77
2023-05-18T06:24:10.993Z,98.25
2023-05-18T06:25:10.967Z,97.54
2023-05-18T06:26:11.015Z,97.54
2023-05-18T06:27:10.922Z,98.32
2023-05-18T06:28:10.911Z,98.32
2023-05-18T06:29:10.934Z,97.91
2023-05-18T06:30:10.907Z,96.98
2023-05-18T06:31:10.892Z,97.19
2023-05-18T06:32:10.909Z,96.78
2023-05-18T06:33:10.912Z,95.86
2023-05-18T06:34:10.842Z,96.63
2023-05-18T06:35:10.898Z,96.73
2023-05-18T06:36:10.832Z,96.63
2023-05-18T06:37:10.789Z,96.63
2023-05-18T06:38:10.795Z,95.29
2023-05-18T06:39:10.765Z,95.40
2023-05-18T06:40:10.806Z,95.61
2023-05-18T06:41:10.737Z,94.43
2023-05-18T06:42:10.736Z,94.64
2023-05-18T06:43:10.713Z,94.12
2023-05-18T06:44:10.699Z,92.79
2023-05-18T06:45:10.736Z,92.18
2023-05-18T06:46:10.691Z,93.51
2023-05-18T06:47:10.680Z,93.41
2023-05-18T06:48:10.704Z,93.77
2023-05-18T06:49:10.657Z,91.31
2023-05-18T06:50:10.656Z,90.19
2023-05-18T06:51:10.643Z,88.96
2023-05-18T06:52:10.592Z,88.76
2023-05-18T06:53:10.581Z,90.39
2023-05-18T06:54:10.642Z,90.36
2023-05-18T06:55:10.550Z,88.31
2023-05-18T06:56:10.540Z,88.20
2023-05-18T06:57:10.531Z,88.92
2023-05-18T06:58:10.541Z,87.76
2023-05-18T06:59:10.555Z,88.37
2023-05-18T07:00:10.493Z,86.73
2023-05-18T07:01:10.513Z,86.73
2023-05-18T07:02:10.459Z,85.30
2023-05-18T07:03:10.552Z,84.69
2023-05-18T07:04:10.455Z,84.65
2023-05-18T07:05:10.418Z,83.62
2023-05-18T07:06:10.411Z,84.24
2023-05-18T07:07:10.393Z,82.29
2023-05-18T07:08:10.419Z,80.05
2023-05-18T07:09:10.361Z,81.17
2023-05-18T07:10:10.364Z,81.99
2023-05-18T07:11:10.338Z,82.91
2023-05-18T07:12:10.355Z,82.60
2023-05-18T07:13:10.354Z,86.65
2023-05-18T07:14:10.307Z,80.32
2023-05-18T07:15:10.302Z,78.17
2023-05-18T07:16:10.292Z,78.68
2023-05-18T07:17:10.479Z,78.07
2023-05-18T07:18:10.299Z,78.17
2023-05-18T07:19:10.280Z,78.68
2023-05-18T07:20:10.253Z,77.66
2023-05-18T07:21:10.212Z,76.81
2023-05-18T07:22:10.230Z,76.60
2023-05-18T07:23:10.174Z,80.28
2023-05-18T07:24:10.165Z,80.58
2023-05-18T07:25:10.141Z,79.32
2023-05-18T07:26:10.192Z,76.67
2023-05-18T07:27:10.130Z,76.06
2023-05-18T07:28:10.123Z,76.06
2023-05-18T07:29:10.186Z,76.46
2023-05-18T07:30:10.091Z,75.54
2023-05-18T07:31:10.162Z,75.51
2023-05-18T07:32:10.082Z,75.41
2023-05-18T07:33:10.106Z,76.02
2023-05-18T07:34:10.020Z,74.29
2023-05-18T07:35:10.035Z,73.16
2023-05-18T07:36:10.037Z,72.55
2023-05-18T07:37:09.981Z,72.45
2023-05-18T07:38:10.008Z,70.51
2023-05-18T07:39:09.960Z,70.92
2023-05-18T07:40:09.986Z,71.22
2023-05-18T07:41:09.949Z,70.00
2023-05-18T07:42:09.926Z,69.49
2023-05-18T07:43:09.916Z,70.20
2023-05-18T07:44:09.915Z,71.84
2023-05-18T07:45:09.899Z,71.60
2023-05-18T07:46:09.927Z,70.37
2023-05-18T07:47:09.940Z,72.11
2023-05-18T07:48:09.910Z,70.78
2023-05-18T07:49:09.835Z,69.15
2023-05-18T07:50:09.846Z,68.95
2023-05-18T07:51:09.813Z,68.23
2023-05-18T07:52:09.791Z,68.64
2023-05-18T07:53:09.789Z,69.53
2023-05-18T07:54:09.796Z,68.20
2023-05-18T07:55:09.788Z,67.69
2023-05-18T07:56:09.733Z,67.08
2023-05-18T07:57:09.709Z,66.77
2023-05-18T07:58:09.707Z,66.27
2023-05-18T07:59:09.711Z,67.18
2023-05-18T08:00:09.691Z,67.08
2023-05-18T08:01:09.708Z,68.40
2023-05-18T08:02:09.677Z,66.27
2023-05-18T08:03:09.681Z,65.65
2023-05-18T08:04:09.741Z,65.62
2023-05-18T08:05:09.607Z,63.79
2023-05-18T08:06:09.634Z,64.09
2023-05-18T08:07:09.600Z,64.29
2023-05-18T08:08:09.587Z,66.13
2023-05-18T08:09:09.571Z,66.03
2023-05-18T08:10:09.550Z,66.03
2023-05-18T08:11:09.544Z,65.52
2023-05-18T08:12:09.523Z,65.19
2023-05-18T08:13:09.526Z,65.08
2023-05-18T08:14:09.506Z,64.26
2023-05-18T08:15:09.468Z,65.49
2023-05-18T08:16:12.363Z,65.59
2023-05-18T08:17:09.537Z,64.03
2023-05-18T08:18:09.518Z,63.76
2023-05-18T08:19:09.458Z,63.35
2023-05-18T08:20:09.413Z,64.57
2023-05-18T08:21:09.456Z,63.86
2023-05-18T08:22:09.407Z,63.65
2023-05-18T08:23:09.390Z,64.57
2023-05-18T08:24:09.348Z,63.96
2023-05-18T08:25:09.333Z,64.47
2023-05-18T08:26:10.930Z,63.45
2023-05-18T08:27:09.345Z,64.17
2023-05-18T08:28:09.599Z,62.63
2023-05-18T08:29:09.288Z,63.15
2023-05-18T08:30:09.280Z,63.04
2023-05-18T08:31:09.275Z,63.35
2023-05-18T08:32:09.302Z,62.84
2023-05-18T08:33:09.380Z,62.74
2023-05-18T08:34:09.210Z,63.56
2023-05-18T08:35:09.190Z,61.38
2023-05-18T08:36:09.191Z,60.88
2023-05-18T08:37:09.175Z,63.01
2023-05-18T08:38:09.168Z,62.40
2023-05-18T08:39:09.154Z,62.20
2023-05-18T08:40:09.138Z,62.27
2023-05-18T08:41:09.124Z,60.75
2023-05-18T08:42:09.099Z,62.17
2023-05-18T08:43:09.085Z,62.98
2023-05-18T08:44:09.070Z,60.44
2023-05-18T08:45:09.059Z,60.34
2023-05-18T08:46:09.071Z,60.95
2023-05-18T08:47:09.034Z,60.75
2023-05-18T08:48:09.145Z,62.17
2023-05-18T08:49:09.106Z,60.34
2023-05-18T08:50:08.999Z,60.85
2023-05-18T08:51:08.981Z,60.34
2023-05-18T08:52:08.974Z,59.86
2023-05-18T08:53:08.950Z,59.35
2023-05-18T08:54:08.933Z,59.55
2023-05-18T08:55:11.825Z,60.47
2023-05-18T08:56:08.905Z,60.37
2023-05-18T08:57:08.905Z,59.63
2023-05-18T08:58:08.883Z,59.75
2023-05-18T08:59:08.932Z,60.14
2023-05-18T09:00:08.877Z,60.54
2023-05-18T09:01:08.895Z,59.63
2023-05-18T09:02:08.917Z,59.73
2023-05-18T09:03:08.861Z,60.11
2023-05-18T09:04:08.860Z,60.52
2023-05-18T09:05:08.863Z,59.80
2023-05-18T09:06:08.791Z,59.60
2023-05-18T09:07:08.777Z,59.09
2023-05-18T09:08:08.783Z,59.70
2023-05-18T09:09:08.773Z,59.98
2023-05-18T09:10:08.718Z,59.57
2023-05-18T09:11:08.707Z,60.18
2023-05-18T09:12:08.681Z,59.67
2023-05-18T09:13:08.677Z,58.45
2023-05-18T09:14:08.682Z,58.04
2023-05-18T09:15:08.647Z,58.42
2023-05-18T09:16:08.717Z,58.12
2023-05-18T09:17:08.624Z,58.53
2023-05-18T09:18:08.655Z,58.22
2023-05-18T09:19:08.656Z,57.74
2023-05-18T09:20:08.569Z,58.45
2023-05-18T09:21:08.570Z,59.37
2023-05-18T09:22:08.568Z,60.97
2023-05-18T09:23:08.628Z,60.05
2023-05-18T09:24:08.534Z,58.04
2023-05-18T09:25:08.511Z,59.06
2023-05-18T09:26:08.506Z,58.76
2023-05-18T09:27:08.498Z,57.74
2023-05-18T09:28:08.478Z,57.23
2023-05-18T09:29:08.458Z,57.61
2023-05-18T09:30:08.441Z,53.85
2023-05-18T09:31:08.463Z,55.99
2023-05-18T09:32:08.571Z,56.90
2023-05-18T09:33:08.447Z,57.92
2023-05-18T09:34:08.432Z,57.41
2023-05-18T09:35:08.382Z,57.92
2023-05-18T09:36:08.359Z,56.90
2023-05-18T09:37:08.369Z,56.49
2023-05-18T09:38:08.336Z,56.19
2023-05-18T09:39:08.320Z,57.28
2023-05-18T09:40:08.307Z,58.20
2023-05-18T09:41:08.306Z,55.55
2023-05-18T09:42:08.287Z,56.26
2023-05-18T09:43:08.273Z,56.67
2023-05-18T09:44:08.253Z,58.09
2023-05-18T09:45:08.230Z,57.48
2023-05-18T09:46:08.258Z,56.77
2023-05-18T09:47:08.249Z,56.98
2023-05-18T09:48:08.207Z,57.89
2023-05-18T09:49:08.216Z,56.47
2023-05-18T09:50:08.175Z,56.37
2023-05-18T09:51:08.177Z,58.70
2023-05-18T09:52:08.129Z,55.45
2023-05-18T09:53:08.140Z,55.53
2023-05-18T09:54:08.116Z,54.31
2023-05-18T09:55:08.144Z,54.61
2023-05-18T09:56:08.103Z,55.32
2023-05-18T09:57:11.155Z,54.82
2023-05-18T09:58:08.049Z,54.31
2023-05-18T09:59:08.053Z,52.99
2023-05-18T10:00:08.053Z,54.41
2023-05-18T10:01:08.108Z,55.02
2023-05-18T10:02:08.006Z,54.00
2023-05-18T10:03:08.040Z,54.51
2023-05-18T10:04:08.034Z,54.41
2023-05-18T10:05:08.007Z,54.51
2023-05-18T10:06:07.943Z,53.98
2023-05-18T10:07:07.940Z,53.88
2023-05-18T10:08:07.920Z,53.88
2023-05-18T10:09:07.938Z,54.18
2023-05-18T10:10:09.273Z,55.71
2023-05-18T10:11:07.876Z,55.88
2023-05-18T10:12:07.870Z,56.36
2023-05-18T10:13:07.856Z,55.65
2023-05-18T10:14:07.912Z,55.35
2023-05-18T10:15:07.828Z,55.02
2023-05-18T10:16:07.826Z,54.92
2023-05-18T10:18:08.901Z,55.77
2023-05-18T10:19:07.841Z,54.76
2023-05-18T10:20:07.763Z,53.93
2023-05-18T10:21:07.757Z,53.32
2023-05-18T10:22:07.733Z,52.61
2023-05-18T10:23:07.772Z,51.90
2023-05-18T10:24:07.721Z,51.83
2023-05-18T10:25:07.734Z,52.03
2023-05-18T10:26:07.733Z,51.53
2023-05-18T10:27:07.669Z,51.02
2023-05-18T10:28:07.690Z,52.13
2023-05-18T10:29:07.648Z,52.64
2023-05-18T10:30:07.634Z,53.42
2023-05-18T10:31:07.679Z,53.70
2023-05-18T10:32:08.084Z,53.19
2023-05-18T10:33:17.072Z,54.18
2023-05-18T10:34:08.563Z,52.76
2023-05-18T10:35:07.564Z,53.14
2023-05-18T10:36:07.546Z,53.25
2023-05-18T10:37:07.981Z,52.92
2023-05-18T10:38:07.554Z,52.21
2023-05-18T10:39:07.521Z,51.50
2023-05-18T10:40:07.484Z,51.40
2023-05-18T10:41:07.485Z,50.49
2023-05-18T10:42:07.482Z,50.37
2023-05-18T10:43:07.499Z,51.25
2023-05-18T10:44:07.433Z,49.18
2023-05-18T10:45:07.434Z,49.79
2023-05-18T10:46:07.570Z,51.00
2023-05-18T10:47:07.505Z,50.19
2023-05-18T10:48:07.406Z,49.87
2023-05-18T10:49:07.365Z,49.36
2023-05-18T10:50:07.363Z,48.58
2023-05-18T10:51:07.367Z,50.19
2023-05-18T10:52:07.372Z,50.87
2023-05-18T10:53:07.330Z,49.13
2023-05-18T10:54:07.299Z,49.01
2023-05-18T10:55:07.298Z,48.69
2023-05-18T10:56:07.306Z,48.56
2023-05-18T10:57:07.291Z,47.53
2023-05-18T10:58:07.239Z,46.70
2023-05-18T10:59:07.227Z,46.68
2023-05-18T11:00:07.221Z,46.03
2023-05-18T11:01:07.223Z,46.11
2023-05-18T11:02:07.241Z,45.49
2023-05-18T11:03:07.223Z,46.67
2023-05-18T11:04:07.156Z,44.95
2023-05-18T11:05:07.175Z,44.44
2023-05-18T11:06:07.173Z,45.92
2023-05-18T11:07:07.129Z,44.60
2023-05-18T11:08:07.106Z,44.50
2023-05-18T11:09:07.097Z,44.42
2023-05-18T11:10:07.096Z,44.52
2023-05-18T11:11:07.072Z,43.58
2023-05-18T11:12:07.047Z,41.66
2023-05-18T11:13:07.054Z,41.96
2023-05-18T11:14:07.016Z,42.68
2023-05-18T11:15:07.036Z,42.27
2023-05-18T11:16:07.084Z,41.75
2023-05-18T11:17:06.990Z,42.13
2023-05-18T11:18:06.997Z,42.13
2023-05-18T11:19:07.059Z,42.13
2023-05-18T11:20:07.016Z,43.33
2023-05-18T11:21:06.932Z,41.13
2023-05-18T11:22:06.917Z,41.93
2023-05-18T11:23:06.908Z,41.83
2023-05-18T11:24:06.905Z,40.93
2023-05-18T11:25:06.882Z,40.93
2023-05-18T11:26:06.861Z,39.35
2023-05-18T11:27:06.850Z,39.27
2023-05-18T11:28:06.864Z,40.55
2023-05-18T11:29:06.846Z,40.57
2023-05-18T11:30:15.269Z,40.49
2023-05-18T11:31:07.797Z,39.79
2023-05-18T11:32:08.211Z,39.99
2023-05-18T11:33:06.905Z,39.17
2023-05-18T11:34:06.746Z,39.75
2023-05-18T11:35:06.747Z,40.71
2023-05-18T11:36:06.725Z,41.19
2023-05-18T11:37:06.746Z,40.80
2023-05-18T11:38:06.724Z,40.00
2023-05-18T11:39:06.726Z,38.70
2023-05-18T11:40:09.240Z,38.70
2023-05-18T11:41:06.668Z,37.99
2023-05-18T11:42:06.661Z,38.07
2023-05-18T11:43:06.650Z,38.57
2023-05-18T11:44:06.623Z,38.49
2023-05-18T11:45:06.619Z,37.79
2023-05-18T11:46:06.592Z,38.29
2023-05-18T11:47:06.592Z,40.30
2023-05-18T11:48:06.622Z,39.61
2023-05-18T11:49:06.649Z,39.93
2023-05-18T11:50:06.534Z,40.00
2023-05-18T11:51:06.520Z,39.78
2023-05-18T11:52:06.541Z,40.06
2023-05-18T11:53:06.504Z,38.74
2023-05-18T11:54:06.481Z,37.42
2023-05-18T11:55:06.483Z,37.52
2023-05-18T11:56:06.458Z,38.20
2023-05-18T11:57:06.465Z,38.39
2023-05-18T11:58:06.427Z,36.67
2023-05-18T11:59:06.424Z,38.03
2023-05-18T12:00:06.409Z,37.62
2023-05-18T12:01:06.394Z,36.42
2023-05-18T12:02:06.418Z,35.42
2023-05-18T12:03:06.498Z,36.44
2023-05-18T12:04:06.457Z,36.27
2023-05-18T12:05:06.346Z,36.95
2023-05-18T12:06:06.341Z,37.83
2023-05-18T12:07:06.316Z,36.35
2023-05-18T12:08:06.302Z,37.29
2023-05-18T12:09:06.282Z,37.38
2023-05-18T12:10:06.282Z,37.68
2023-05-18T12:11:06.266Z,37.37
2023-05-18T12:12:06.257Z,36.34
2023-05-18T12:13:06.241Z,37.04
2023-05-18T12:14:06.243Z,36.16
2023-05-18T12:15:06.213Z,36.46
2023-05-18T12:16:06.210Z,36.65
2023-05-18T12:17:06.209Z,35.29
2023-05-18T12:18:06.165Z,36.39
2023-05-18T12:19:06.230Z,36.49
2023-05-18T12:20:06.169Z,36.71
2023-05-18T12:21:06.120Z,37.49
2023-05-18T12:22:06.108Z,36.97
2023-05-18T12:23:06.102Z,35.17
2023-05-18T12:24:06.146Z,38.17
2023-05-18T12:25:06.102Z,37.87
2023-05-18T12:26:06.059Z,38.37
2023-05-18T12:27:07.548Z,36.25
2023-05-18T12:28:06.030Z,36.65
2023-05-18T12:29:06.051Z,36.49
2023-05-18T12:30:05.999Z,36.80
2023-05-18T12:31:06.047Z,37.59
2023-05-18T12:32:05.974Z,36.69
2023-05-18T12:33:05.982Z,37.19
2023-05-18T12:34:05.982Z,36.19
2023-05-18T12:35:05.949Z,36.27
2023-05-18T12:36:05.926Z,35.35
2023-05-18T12:37:05.918Z,35.66
2023-05-18T12:38:05.925Z,37.27
2023-05-18T12:39:05.901Z,37.59
2023-05-18T12:40:05.864Z,37.01
2023-05-18T12:41:05.862Z,38.40
2023-05-18T12:42:05.838Z,40.28
2023-05-18T12:43:05.860Z,37.88
2023-05-18T12:44:05.822Z,38.81
2023-05-18T12:45:06.787Z,39.72
2023-05-18T12:46:05.820Z,39.79
2023-05-18T12:47:05.808Z,40.08
2023-05-18T12:48:05.931Z,39.89
2023-05-18T12:49:05.759Z,40.59
2023-05-18T12:50:05.745Z,39.81
2023-05-18T12:51:05.740Z,40.71
2023-05-18T12:52:05.728Z,40.15
2023-05-18T12:53:05.716Z,40.45